createdAt,value
2023-10-09T00:00:50.905Z,100.00
2023-10-09T00:03:18.436Z,100.00
2023-10-09T00:05:45.107Z,100.00
2023-10-09T00:08:11.632Z,100.00
2023-10-09T00:10:39.687Z,100.00
2023-10-09T00:13:06.278Z,100.00
2023-10-09T00:15:33.916Z,100.00
2023-10-09T00:18:03.895Z,100.00
2023-10-09T00:20:30.505Z,100.00
2023-10-09T00:22:56.925Z,100.00
2023-10-09T00:25:23.463Z,100.00
2023-10-09T00:27:51.723Z,100.00
2023-10-09T00:30:19.382Z,100.00
2023-10-09T00:32:46.738Z,100.00
2023-10-09T00:35:13.288Z,100.00
2023-10-09T00:37:39.903Z,100.00
2023-10-09T00:40:07.718Z,100.00
2023-10-09T00:42:34.318Z,100.00
2023-10-09T00:45:02.626Z,100.00
2023-10-09T00:47:32.496Z,100.00
2023-10-09T00:50:00.770Z,100.00
2023-10-09T00:52:30.363Z,100.00
2023-10-09T00:54:57.297Z,100.00
2023-10-09T00:57:24.044Z,100.00
2023-10-09T00:59:55.126Z,100.00
2023-10-09T01:02:23.029Z,100.00
2023-10-09T01:04:49.626Z,100.00
2023-10-09T01:07:16.641Z,100.00
2023-10-09T01:09:44.160Z,100.00
2023-10-09T01:12:11.148Z,100.00
2023-10-09T01:14:37.744Z,100.00
2023-10-09T01:17:05.085Z,100.00
2023-10-09T01:19:33.344Z,100.00
2023-10-09T01:21:59.999Z,100.00
2023-10-09T01:24:27.952Z,100.00
2023-10-09T01:26:54.714Z,100.00
2023-10-09T01:29:22.292Z,100.00
2023-10-09T01:31:50.169Z,100.00
2023-10-09T01:34:17.189Z,100.00
2023-10-09T01:36:43.839Z,100.00
2023-10-09T01:39:10.555Z,100.00
2023-10-09T01:41:38.487Z,100.00
2023-10-09T01:44:05.371Z,100.00
2023-10-09T01:46:32.216Z,100.00
2023-10-09T01:48:58.740Z,100.00
2023-10-09T01:51:25.303Z,100.00
2023-10-09T01:53:52.090Z,100.00
2023-10-09T01:56:18.883Z,100.00
2023-10-09T01:58:46.865Z,100.00
2023-10-09T02:01:13.752Z,100.00
2023-10-09T02:03:40.822Z,100.00
2023-10-09T02:06:07.757Z,100.00
2023-10-09T02:08:34.229Z,100.00
2023-10-09T02:11:00.665Z,100.00
2023-10-09T02:13:27.191Z,100.00
2023-10-09T02:15:57.367Z,100.00
2023-10-09T02:18:24.056Z,100.00
2023-10-09T02:20:52.461Z,100.00
2023-10-09T02:23:19.036Z,100.00
2023-10-09T02:25:46.601Z,100.00
2023-10-09T02:28:13.061Z,100.00
2023-10-09T02:30:39.774Z,100.00
2023-10-09T02:33:08.048Z,100.00
2023-10-09T02:35:34.759Z,100.00
2023-10-09T02:38:01.261Z,100.00
2023-10-09T02:40:29.186Z,100.00
2023-10-09T02:42:55.641Z,100.00
2023-10-09T02:45:22.160Z,100.00
2023-10-09T02:47:48.910Z,100.00
2023-10-09T02:50:17.456Z,100.00
2023-10-09T02:52:43.945Z,100.00
2023-10-09T02:55:10.452Z,100.00
2023-10-09T02:57:37.075Z,100.00
2023-10-09T03:00:05.042Z,100.00
2023-10-09T03:02:31.866Z,100.00
2023-10-09T03:04:58.595Z,100.00
2023-10-09T03:07:26.888Z,100.00
2023-10-09T03:09:53.397Z,100.00
2023-10-09T03:12:20.030Z,100.00
2023-10-09T03:14:47.072Z,100.00
2023-10-09T03:17:13.967Z,100.00
2023-10-09T03:19:41.224Z,100.00
2023-10-09T03:22:08.868Z,100.00
2023-10-09T03:24:37.163Z,100.00
2023-10-09T03:27:03.854Z,100.00
2023-10-09T03:29:30.352Z,100.00
2023-10-09T03:31:57.028Z,100.00
2023-10-09T03:34:23.772Z,100.00
2023-10-09T03:36:50.428Z,100.00
2023-10-09T03:39:17.331Z,100.00
2023-10-09T03:41:45.466Z,100.00
2023-10-09T03:44:12.421Z,100.00
2023-10-09T03:46:39.064Z,100.00
2023-10-09T03:49:05.592Z,100.00
2023-10-09T03:51:32.178Z,100.00
2023-10-09T03:53:58.914Z,100.00
2023-10-09T03:56:25.427Z,100.00
2023-10-09T03:58:53.235Z,100.00
2023-10-09T04:01:20.703Z,100.00
2023-10-09T04:03:47.452Z,100.00
2023-10-09T04:06:14.290Z,100.00
2023-10-09T04:08:40.747Z,100.00
2023-10-09T04:11:07.314Z,100.00
2023-10-09T04:13:36.977Z,100.00
2023-10-09T04:16:05.213Z,100.00
2023-10-09T04:18:31.745Z,100.00
2023-10-09T04:20:58.528Z,100.00
2023-10-09T04:23:25.061Z,100.00
2023-10-09T04:25:51.511Z,100.00
2023-10-09T04:28:17.986Z,100.00
2023-10-09T04:30:44.995Z,100.00
2023-10-09T04:33:14.145Z,100.00
2023-10-09T04:35:40.592Z,100.00
2023-10-09T04:38:07.268Z,100.00
2023-10-09T04:40:34.214Z,100.00
2023-10-09T04:43:00.758Z,100.00
2023-10-09T04:45:27.359Z,100.00
2023-10-09T04:47:53.835Z,100.00
2023-10-09T04:50:21.895Z,100.00
2023-10-09T04:52:48.508Z,100.00
2023-10-09T04:55:15.071Z,100.00
2023-10-09T04:57:42.871Z,100.00
2023-10-09T05:00:10.913Z,100.00
2023-10-09T05:02:37.623Z,100.00
2023-10-09T05:05:05.203Z,100.00
2023-10-09T05:07:33.235Z,100.00
2023-10-09T05:09:59.881Z,100.00
2023-10-09T05:12:26.383Z,100.00
2023-10-09T05:14:53.428Z,100.00
2023-10-09T05:17:20.145Z,100.00
2023-10-09T05:19:46.670Z,100.00
2023-10-09T05:22:13.186Z,100.00
2023-10-09T05:24:41.069Z,100.00
2023-10-09T05:27:07.556Z,100.00
2023-10-09T05:29:34.043Z,100.00
2023-10-09T05:32:01.858Z,100.00
2023-10-09T05:34:28.405Z,100.00
2023-10-09T05:36:54.955Z,100.00
2023-10-09T05:39:21.514Z,100.00
2023-10-09T05:41:49.525Z,100.00
2023-10-09T05:44:15.998Z,100.00
2023-10-09T05:46:42.574Z,100.00
2023-10-09T05:49:09.080Z,100.00
2023-10-09T05:51:35.625Z,100.00
2023-10-09T05:54:02.188Z,100.00
2023-10-09T05:56:28.697Z,100.00
2023-10-09T05:58:56.493Z,100.00
2023-10-09T06:01:23.003Z,100.00
2023-10-09T06:03:49.647Z,100.00
2023-10-09T06:06:16.687Z,100.00
2023-10-09T06:08:43.338Z,100.00
2023-10-09T06:11:10.673Z,100.00
2023-10-09T06:13:37.388Z,100.00
2023-10-09T06:16:05.476Z,100.00
2023-10-09T06:18:31.977Z,100.00
2023-10-09T06:20:58.527Z,100.00
2023-10-09T06:23:25.017Z,100.00
2023-10-09T06:25:51.732Z,100.00
2023-10-09T06:28:18.787Z,100.00
2023-10-09T06:30:45.561Z,100.00
2023-10-09T06:33:13.574Z,100.00
2023-10-09T06:35:40.265Z,100.00
2023-10-09T06:38:12.298Z,100.00
2023-10-09T06:40:39.453Z,100.00
2023-10-09T06:43:06.443Z,100.00
2023-10-09T06:45:36.305Z,100.00
2023-10-09T06:48:03.229Z,100.00
2023-10-09T06:50:31.132Z,100.00
2023-10-09T06:52:57.591Z,100.00
2023-10-09T06:55:24.346Z,100.00
2023-10-09T06:57:50.790Z,100.00
2023-10-09T07:00:17.766Z,100.00
2023-10-09T07:02:44.385Z,100.00
2023-10-09T07:05:13.891Z,100.00
2023-10-09T07:07:42.487Z,100.00
2023-10-09T07:10:09.498Z,100.00
2023-10-09T07:12:36.214Z,100.00
2023-10-09T07:15:03.496Z,100.00
2023-10-09T07:17:30.321Z,100.00
2023-10-09T07:19:56.952Z,100.00
2023-10-09T07:22:23.759Z,100.00
2023-10-09T07:24:53.913Z,100.00
2023-10-09T07:27:20.786Z,100.00
2023-10-09T07:29:47.343Z,100.00
2023-10-09T07:32:14.057Z,100.00
2023-10-09T07:34:40.572Z,100.00
2023-10-09T07:37:07.085Z,100.00
2023-10-09T07:39:33.547Z,100.00
2023-10-09T07:42:02.176Z,100.00
2023-10-09T07:44:28.888Z,100.00
2023-10-09T07:46:55.361Z,100.00
2023-10-09T07:49:21.860Z,100.00
2023-10-09T07:51:48.380Z,100.00
2023-10-09T07:54:15.166Z,100.00
2023-10-09T07:56:43.523Z,100.00
2023-10-09T07:59:11.808Z,100.00
2023-10-09T08:01:39.256Z,100.00
2023-10-09T08:04:06.353Z,100.00
2023-10-09T08:06:33.305Z,100.00
2023-10-09T08:09:00.320Z,100.00
2023-10-09T08:11:26.869Z,100.00
2023-10-09T08:13:53.441Z,100.00
2023-10-09T08:16:21.234Z,100.00
2023-10-09T08:18:47.768Z,100.00
2023-10-09T08:21:14.357Z,100.00
2023-10-09T08:23:40.907Z,100.00
2023-10-09T08:26:07.438Z,100.00
2023-10-09T08:28:34.205Z,100.00
2023-10-09T08:31:00.841Z,100.00
2023-10-09T08:35:58.830Z,100.00
2023-10-09T08:38:25.836Z,100.00
2023-10-09T08:40:53.002Z,100.00
2023-10-09T08:43:20.772Z,100.00
2023-10-09T08:45:49.270Z,100.00
2023-10-09T08:48:16.396Z,100.00
2023-10-09T08:50:45.944Z,100.00
2023-10-09T08:53:14.576Z,100.00
2023-10-09T08:55:42.053Z,100.00
2023-10-09T08:58:09.290Z,100.00
2023-10-09T09:00:35.750Z,100.00
2023-10-09T09:03:02.820Z,100.00
2023-10-09T09:05:29.421Z,100.00
2023-10-09T09:07:57.249Z,100.00
2023-10-09T09:10:29.255Z,100.00
2023-10-09T09:12:55.885Z,99.94
2023-10-09T09:15:22.870Z,100.00
2023-10-09T09:17:49.591Z,99.38
2023-10-09T09:20:20.994Z,100.00
2023-10-09T09:22:53.786Z,99.50
2023-10-09T09:25:21.680Z,99.58
2023-10-09T09:27:48.474Z,99.32
2023-10-09T09:30:23.874Z,100.00
2023-10-09T09:32:50.485Z,99.91
2023-10-09T09:35:17.250Z,99.54
2023-10-09T09:37:53.707Z,99.40
2023-10-09T09:40:21.890Z,98.94
2023-10-09T09:42:49.963Z,98.71
2023-10-09T09:45:17.081Z,99.02
2023-10-09T09:47:45.303Z,100.00
2023-10-09T09:50:13.010Z,98.06
2023-10-09T09:52:40.593Z,99.47
2023-10-09T09:55:09.536Z,99.07
2023-10-09T09:57:37.739Z,99.03
2023-10-09T10:00:07.253Z,96.83
2023-10-09T10:02:38.088Z,97.13
2023-10-09T10:05:09.298Z,97.67
2023-10-09T10:07:36.480Z,98.20
2023-10-09T10:10:03.102Z,98.97
2023-10-09T10:16:05.138Z,100.00
2023-10-09T10:18:34.355Z,99.67
2023-10-09T10:21:11.731Z,99.46
2023-10-09T10:23:38.249Z,100.00
2023-10-09T10:26:17.557Z,99.56
2023-10-09T10:28:44.361Z,99.45
2023-10-09T10:31:11.494Z,99.35
2023-10-09T10:34:07.188Z,99.71
2023-10-09T10:36:33.702Z,99.24
2023-10-09T10:39:01.407Z,97.76
2023-10-09T10:41:27.914Z,97.95
2023-10-09T10:43:54.467Z,97.71
2023-10-09T10:46:22.776Z,97.72
2023-10-09T10:48:50.244Z,96.68
2023-10-09T10:51:18.105Z,98.25
2023-10-09T10:53:52.535Z,97.57
2023-10-09T10:56:20.092Z,96.66
2023-10-09T10:58:53.713Z,96.28
2023-10-09T11:01:22.922Z,94.07
2023-10-09T11:03:50.516Z,93.73
2023-10-09T11:06:25.718Z,92.89
2023-10-09T11:08:52.158Z,91.58
2023-10-09T11:11:18.746Z,90.44
2023-10-09T11:13:45.496Z,93.36
2023-10-09T11:16:12.181Z,90.78
2023-10-09T11:18:40.573Z,89.49
2023-10-09T11:21:07.471Z,90.76
2023-10-09T11:23:36.142Z,89.00
2023-10-09T11:26:04.622Z,87.20
2023-10-09T11:28:31.523Z,88.36
2023-10-09T11:31:09.955Z,86.16
2023-10-09T11:33:46.356Z,85.21
2023-10-09T11:36:12.927Z,84.61
2023-10-09T11:38:40.712Z,83.67
2023-10-09T11:41:14.000Z,83.66
2023-10-09T11:43:47.959Z,85.40
2023-10-09T11:46:14.589Z,84.67
2023-10-09T11:48:41.100Z,85.21
2023-10-09T11:51:13.355Z,86.54
2023-10-09T11:53:42.786Z,85.07
2023-10-09T11:56:09.570Z,87.00
2023-10-09T11:58:36.047Z,86.25
2023-10-09T12:01:12.632Z,86.64
2023-10-09T12:03:39.156Z,87.16
2023-10-09T12:06:05.967Z,86.99
2023-10-09T12:08:32.736Z,88.05
2023-10-09T12:11:01.140Z,88.42
2023-10-09T12:13:27.600Z,88.83
2023-10-09T12:15:54.268Z,88.73
2023-10-09T12:18:22.024Z,89.56
2023-10-09T12:20:51.265Z,89.50
2023-10-09T12:23:18.938Z,89.86
2023-10-09T12:25:46.258Z,89.66
2023-10-09T12:28:14.891Z,88.94
2023-10-09T12:30:42.247Z,90.21
2023-10-09T12:33:09.645Z,89.44
2023-10-09T12:35:40.072Z,90.17
2023-10-09T12:38:07.387Z,89.14
2023-10-09T12:40:33.896Z,88.44
2023-10-09T12:43:00.356Z,88.49
2023-10-09T12:45:28.401Z,87.87
2023-10-09T12:47:55.343Z,88.47
2023-10-09T12:50:22.048Z,88.32
2023-10-09T12:52:48.541Z,88.67
2023-10-09T12:55:15.361Z,88.99
2023-10-09T12:57:41.847Z,89.57
2023-10-09T13:00:09.168Z,89.45
2023-10-09T13:02:37.101Z,90.13
2023-10-09T13:05:04.324Z,89.89
2023-10-09T13:07:30.893Z,89.12
2023-10-09T13:09:57.876Z,87.82
2023-10-09T13:12:24.325Z,87.77
2023-10-09T13:14:50.875Z,88.74
2023-10-09T13:17:17.596Z,87.07
2023-10-09T13:19:45.593Z,87.96
2023-10-09T13:22:12.131Z,88.61
2023-10-09T13:24:38.576Z,89.31
2023-10-09T13:27:05.039Z,89.87
2023-10-09T13:29:31.501Z,89.90
2023-10-09T13:31:57.961Z,89.73
2023-10-09T13:34:24.819Z,89.96
2023-10-09T13:36:52.985Z,90.92
2023-10-09T13:39:20.173Z,90.23
2023-10-09T13:41:47.073Z,90.63
2023-10-09T13:44:13.744Z,89.86
2023-10-09T13:46:40.631Z,91.34
2023-10-09T13:49:07.164Z,91.18
2023-10-09T13:51:33.645Z,91.60
2023-10-09T13:54:01.533Z,91.11
2023-10-09T13:56:27.972Z,91.47
2023-10-09T13:58:54.489Z,91.17
2023-10-09T14:01:21.385Z,91.31
2023-10-09T14:03:48.872Z,91.43
2023-10-09T14:06:15.515Z,92.15
2023-10-09T14:08:42.107Z,92.29
2023-10-09T14:11:10.004Z,93.53
2023-10-09T14:13:36.607Z,93.88
2023-10-09T14:16:03.464Z,93.88
2023-10-09T14:18:30.016Z,95.03
2023-10-09T14:20:56.526Z,95.32
2023-10-09T14:23:23.074Z,94.94
2023-10-09T14:25:49.549Z,95.68
2023-10-09T14:28:17.501Z,96.43
2023-10-09T14:30:44.419Z,95.56
2023-10-09T14:33:11.649Z,96.41
2023-10-09T14:35:38.074Z,96.92
2023-10-09T14:38:04.737Z,98.06
2023-10-09T14:40:31.264Z,98.42
2023-10-09T14:42:58.247Z,98.30
2023-10-09T14:45:26.412Z,97.97
2023-10-09T14:47:56.320Z,98.40
2023-10-09T14:50:23.155Z,97.71
2023-10-09T14:52:49.928Z,97.81
2023-10-09T14:55:16.584Z,97.61
2023-10-09T14:57:43.081Z,97.36
2023-10-09T15:00:10.299Z,97.57
2023-10-09T15:02:38.097Z,97.80
2023-10-09T15:05:05.509Z,98.65
2023-10-09T15:10:05.993Z,98.42
2023-10-09T15:12:33.446Z,98.47
2023-10-09T15:15:02.918Z,98.82
2023-10-09T15:17:29.398Z,99.47
2023-10-09T15:19:57.256Z,99.11
2023-10-09T15:22:23.778Z,99.64
2023-10-09T15:24:50.213Z,100.00
2023-10-09T15:27:16.652Z,99.68
2023-10-09T15:29:43.310Z,100.00
2023-10-09T15:32:09.837Z,100.00
2023-10-09T15:34:36.571Z,100.00
2023-10-09T15:37:04.910Z,100.00
2023-10-09T15:39:31.435Z,100.00
2023-10-09T15:41:58.125Z,100.00
2023-10-09T15:44:26.094Z,100.00
2023-10-09T15:46:54.561Z,100.00
2023-10-09T15:49:21.111Z,100.00
2023-10-09T15:51:47.571Z,100.00
2023-10-09T15:54:15.588Z,100.00
2023-10-09T15:56:45.025Z,100.00
2023-10-09T15:59:15.517Z,100.00
2023-10-09T16:01:42.389Z,100.00
2023-10-09T16:04:09.440Z,100.00
2023-10-09T16:06:36.181Z,100.00
2023-10-09T16:09:02.618Z,100.00
2023-10-09T16:11:30.488Z,100.00
2023-10-09T16:13:57.039Z,100.00
2023-10-09T16:16:27.202Z,100.00
2023-10-09T16:18:54.748Z,100.00
2023-10-09T16:21:21.216Z,100.00
2023-10-09T16:23:47.783Z,100.00
2023-10-09T16:26:14.303Z,100.00
2023-10-09T16:28:42.263Z,100.00
2023-10-09T16:31:08.814Z,100.00
2023-10-09T16:33:35.303Z,100.00
2023-10-09T16:36:01.756Z,100.00
2023-10-09T16:38:28.266Z,100.00
2023-10-09T16:40:55.737Z,100.00
2023-10-09T16:43:22.781Z,100.00
2023-10-09T16:45:50.617Z,100.00
2023-10-09T16:48:17.134Z,100.00
2023-10-09T16:50:44.133Z,100.00
2023-10-09T16:53:10.624Z,100.00
2023-10-09T16:55:40.535Z,100.00
2023-10-09T16:58:07.001Z,100.00
2023-10-09T17:00:33.456Z,100.00
2023-10-09T17:03:02.285Z,100.00
2023-10-09T17:05:29.727Z,100.00
2023-10-09T17:07:56.498Z,100.00
2023-10-09T17:10:23.047Z,100.00
2023-10-09T17:12:49.669Z,100.00
2023-10-09T17:15:16.237Z,100.00
2023-10-09T17:17:44.224Z,100.00
2023-10-09T17:20:13.164Z,100.00
2023-10-09T17:22:40.108Z,100.00
2023-10-09T17:25:07.423Z,100.00
2023-10-09T17:27:33.891Z,100.00
2023-10-09T17:30:00.667Z,100.00
2023-10-09T17:32:27.195Z,100.00
2023-10-09T17:34:54.248Z,100.00
2023-10-09T17:37:22.080Z,100.00
2023-10-09T17:39:48.973Z,100.00
2023-10-09T17:42:17.339Z,100.00
2023-10-09T17:44:44.069Z,100.00
2023-10-09T17:47:10.734Z,100.00
2023-10-09T17:49:37.363Z,100.00
2023-10-09T17:52:04.038Z,100.00
2023-10-09T17:54:31.833Z,100.00
2023-10-09T17:56:58.709Z,100.00
2023-10-09T17:59:27.781Z,100.00
2023-10-09T18:01:54.481Z,100.00
2023-10-09T18:04:23.183Z,100.00
2023-10-09T18:06:50.026Z,100.00
2023-10-09T18:09:16.992Z,100.00
2023-10-09T18:11:45.591Z,100.00
2023-10-09T18:14:12.776Z,100.00
2023-10-09T18:16:39.341Z,100.00
2023-10-09T18:19:05.915Z,100.00
2023-10-09T18:21:32.334Z,100.00
2023-10-09T18:23:59.073Z,100.00
2023-10-09T18:26:25.648Z,100.00
2023-10-09T18:28:56.556Z,100.00
2023-10-09T18:31:23.040Z,100.00
2023-10-09T18:33:49.800Z,100.00
2023-10-09T18:36:16.322Z,100.00
2023-10-09T18:38:42.822Z,100.00
2023-10-09T18:41:09.426Z,100.00
2023-10-09T18:43:36.034Z,100.00
2023-10-09T18:46:05.737Z,100.00
2023-10-09T18:48:32.199Z,100.00
2023-10-09T18:51:00.984Z,100.00
2023-10-09T18:53:28.484Z,100.00
2023-10-09T18:55:55.038Z,100.00
2023-10-09T18:58:21.570Z,100.00
2023-10-09T19:00:50.157Z,100.00
2023-10-09T19:03:19.594Z,100.00
2023-10-09T19:05:46.385Z,100.00
2023-10-09T19:08:13.272Z,100.00
2023-10-09T19:10:40.159Z,100.00
2023-10-09T19:13:06.656Z,100.00
2023-10-09T19:15:33.393Z,100.00
2023-10-09T19:18:00.069Z,100.00
2023-10-09T19:20:28.051Z,100.00
2023-10-09T19:22:54.605Z,100.00
2023-10-09T19:25:21.393Z,100.00
2023-10-09T19:27:49.622Z,100.00
2023-10-09T19:30:16.507Z,100.00
2023-10-09T19:32:43.292Z,100.00
2023-10-09T19:35:10.305Z,100.00
2023-10-09T19:37:38.119Z,100.00
2023-10-09T19:40:05.517Z,100.00
2023-10-09T19:42:32.017Z,100.00
2023-10-09T19:44:58.471Z,100.00
2023-10-09T19:47:25.091Z,100.00
2023-10-09T19:49:51.889Z,100.00
2023-10-09T19:52:21.460Z,100.00
2023-10-09T19:54:49.411Z,100.00
2023-10-09T19:57:15.844Z,100.00
2023-10-09T19:59:42.447Z,100.00
2023-10-09T20:02:08.939Z,100.00
2023-10-09T20:04:35.439Z,100.00
2023-10-09T20:07:01.929Z,100.00
2023-10-09T20:09:28.636Z,100.00
2023-10-09T20:11:56.408Z,100.00
2023-10-09T20:14:23.129Z,100.00
2023-10-09T20:16:49.742Z,100.00
2023-10-09T20:19:16.489Z,100.00
2023-10-09T20:21:43.008Z,100.00
2023-10-09T20:24:09.463Z,100.00
2023-10-09T20:26:36.377Z,100.00
2023-10-09T20:29:04.788Z,100.00
2023-10-09T20:31:31.272Z,100.00
2023-10-09T20:33:57.697Z,100.00
2023-10-09T20:36:25.764Z,100.00
2023-10-09T20:38:55.660Z,100.00
2023-10-09T20:41:22.178Z,100.00
2023-10-09T20:43:48.855Z,100.00
2023-10-09T20:46:17.344Z,100.00
2023-10-09T20:48:47.613Z,100.00
2023-10-09T20:51:15.362Z,100.00
2023-10-09T20:53:42.178Z,100.00
2023-10-09T20:56:09.038Z,100.00
2023-10-09T20:58:35.717Z,100.00
2023-10-09T21:01:07.591Z,100.00
2023-10-09T21:03:35.863Z,100.00
2023-10-09T21:06:02.790Z,100.00
2023-10-09T21:08:29.362Z,100.00
2023-10-09T21:10:55.980Z,100.00
2023-10-09T21:13:22.609Z,100.00
2023-10-09T21:15:49.472Z,100.00
2023-10-09T21:18:16.124Z,100.00
2023-10-09T21:20:44.183Z,100.00
2023-10-09T21:23:11.031Z,100.00
2023-10-09T21:25:37.833Z,100.00
2023-10-09T21:28:04.981Z,100.00
2023-10-09T21:30:31.595Z,100.00
2023-10-09T21:32:58.286Z,100.00
2023-10-09T21:35:25.022Z,100.00
2023-10-09T21:37:54.215Z,100.00
2023-10-09T21:40:23.185Z,100.00
2023-10-09T21:42:50.347Z,100.00
2023-10-09T21:45:16.960Z,100.00
2023-10-09T21:47:43.497Z,100.00
2023-10-09T21:50:10.669Z,100.00
2023-10-09T21:52:37.257Z,100.00
2023-10-09T21:55:06.327Z,100.00
2023-10-09T21:57:32.834Z,100.00
2023-10-09T21:59:59.271Z,100.00
2023-10-09T22:02:27.462Z,100.00
2023-10-09T22:04:54.042Z,100.00
2023-10-09T22:07:31.744Z,100.00
2023-10-09T22:09:59.346Z,100.00
2023-10-09T22:12:27.236Z,100.00
2023-10-09T22:14:53.815Z,100.00
2023-10-09T22:17:23.286Z,100.00
2023-10-09T22:19:49.918Z,100.00
2023-10-09T22:22:19.421Z,100.00
2023-10-09T22:24:45.911Z,100.00
2023-10-09T22:27:12.409Z,100.00
2023-10-09T22:29:40.283Z,100.00
2023-10-09T22:32:09.413Z,100.00
2023-10-09T22:34:35.934Z,100.00
2023-10-09T22:37:02.394Z,100.00
2023-10-09T22:39:28.911Z,100.00
2023-10-09T22:41:56.162Z,100.00
2023-10-09T22:44:25.258Z,100.00
2023-10-09T22:46:53.529Z,100.00
2023-10-09T22:49:20.175Z,100.00
2023-10-09T22:51:46.721Z,100.00
2023-10-09T22:54:13.247Z,100.00
2023-10-09T22:56:39.851Z,100.00
2023-10-09T22:59:06.428Z,100.00
2023-10-09T23:01:33.081Z,100.00
2023-10-09T23:04:01.213Z,100.00
2023-10-09T23:06:28.085Z,100.00
2023-10-09T23:08:54.612Z,100.00
2023-10-09T23:11:21.161Z,100.00
2023-10-09T23:13:47.651Z,100.00
2023-10-09T23:16:14.186Z,100.00
2023-10-09T23:18:41.269Z,100.00
2023-10-09T23:21:09.101Z,100.00
2023-10-09T23:23:35.554Z,100.00
2023-10-09T23:26:02.316Z,100.00
2023-10-09T23:28:28.881Z,100.00
2023-10-09T23:30:55.357Z,100.00
2023-10-09T23:33:22.450Z,100.00
2023-10-09T23:35:49.502Z,100.00
2023-10-09T23:38:18.707Z,100.00
2023-10-09T23:40:45.942Z,100.00
2023-10-09T23:43:13.932Z,100.00
2023-10-09T23:45:41.324Z,100.00
2023-10-09T23:48:09.361Z,100.00
2023-10-09T23:50:35.913Z,100.00
2023-10-09T23:53:02.577Z,100.00
2023-10-09T23:55:30.553Z,100.00
2023-10-09T23:57:57.022Z,100.00
